LiveATC.Net - Listen to live air traffic control over the Internet!


ICAO: LTAF  IATA: ADA   Airport: Adana Airport
City: Adana
Country: Turkey   Continent: Asia
LTAF METAR Weather: LTAF 302020Z VRB02KT 9999 FEW035 25/21 Q1009 NOSIG RMK RWY23 18003KT 150V210
LTAF Flight Activity (FlightAware)
LTAF Tower/Approach
Feed Status: DOWN
Last heard on: 2016-08-22 15:31:04 (8 days 5 hours 21 minutes ago)
LTAF Tower/Approach Audio Archives
FacilityFrequency
Adana Approach118.300
Adana Tower121.100
Adana Tower131.100


NOTICE

Unauthorized use prohibited. See LiveATC.net Terms of Service


Find LiveATC Audio Streams


Airport/ARTCC Code

Frequency
(e.g., 124.400, 128.75)
Site-wide search

Browse LiveATC Feeds
LiveATC Coverage Map
Top 50 LiveATC Feeds
Bad Weather Areas

LiveATC FAQ
Offer a LiveATC Feed
Contact LiveATC.net
Press Inquiries

LiveATC on iPhone
LiveATC on Android

Windows Phone
Windows 8/10

LiveATC Mobile
(Mobile browser)

ATC Audio Archives
Interesting Recordings

LiveATC Forums


Home Page
About LiveATC.net
Make a Donation
LiveATC Store

Terms of Use
Privacy Policy

Canadian Air Freqs

AIRMETs/SIGMETs

FAA Airport Status
Nat'l Airspace Status
Arrival Demand Charts


Server Software By:
Icecast.org
Liquidsoap